Napaskiak, Alaska
Current Conditions -  °F | °C
As of 1:18 PM on Monday 20 Oct 2014 (Local Time) from PABE Reporting Station
Light Snow Light Snow  
Wind Chill: -10°   Ceiling: 2600
Heat Index: -3°   Visibility: 1.5mi
Dew Point: -3°   Wind: 16mph
Humidity: 96%   Direction: 340°NNW
Pressure: 29.19"   Gusts: NA
Location:  60.7494°N, 161.727°W
Report Text: PABE 202118Z 34014KT 1 1/2SM -SN BR FEW009 BKN026 OVC043 M03/M03 A2919 RMK AO2 P0000 T10281033
Loading
Personal Weather Stations






























Interactive Weather Map
Tropical Storm Tracking
New forecast layout! Learn more

10-Day Weather Forecast

Advertisements
Track Severe Weather on mobile